sensor_id;sensor_type;location;lat;lon;timestamp;pressure;altitude;pressure_sealevel;temperature;humidity
34961;BME280;30789;52.030;7.110;2023-05-21T00:00:25;101076.19;;;14.85;66.71
34961;BME280;30789;52.030;7.110;2023-05-21T00:02:52;101080.16;;;14.84;67.65
34961;BME280;30789;52.030;7.110;2023-05-21T00:05:19;101073.03;;;14.83;66.79
34961;BME280;30789;52.030;7.110;2023-05-21T00:07:46;101069.44;;;14.82;67.36
34961;BME280;30789;52.030;7.110;2023-05-21T00:10:15;101065.50;;;14.80;66.86
34961;BME280;30789;52.030;7.110;2023-05-21T00:12:41;101066.72;;;14.72;67.35
34961;BME280;30789;52.030;7.110;2023-05-21T00:15:08;101062.78;;;14.69;67.96
34961;BME280;30789;52.030;7.110;2023-05-21T00:17:35;101057.25;;;14.69;67.77
34961;BME280;30789;52.030;7.110;2023-05-21T00:20:02;101056.44;;;14.69;67.55
34961;BME280;30789;52.030;7.110;2023-05-21T00:22:33;101052.91;;;14.65;68.02
34961;BME280;30789;52.030;7.110;2023-05-21T00:25:00;101047.78;;;14.56;68.09
34961;BME280;30789;52.030;7.110;2023-05-21T00:27:28;101049.72;;;14.63;67.36
34961;BME280;30789;52.030;7.110;2023-05-21T00:29:54;101043.84;;;14.54;68.00
34961;BME280;30789;52.030;7.110;2023-05-21T00:32:21;101048.19;;;14.55;68.04
34961;BME280;30789;52.030;7.110;2023-05-21T00:34:47;101043.88;;;14.47;68.12
34961;BME280;30789;52.030;7.110;2023-05-21T00:37:14;101043.88;;;14.47;68.91
34961;BME280;30789;52.030;7.110;2023-05-21T00:39:40;101044.25;;;14.49;68.12
34961;BME280;30789;52.030;7.110;2023-05-21T00:42:07;101034.38;;;14.41;68.87
34961;BME280;30789;52.030;7.110;2023-05-21T00:44:35;101037.94;;;14.41;68.95
34961;BME280;30789;52.030;7.110;2023-05-21T00:47:03;101035.59;;;14.33;69.74
34961;BME280;30789;52.030;7.110;2023-05-21T00:49:30;101039.13;;;14.37;68.90
34961;BME280;30789;52.030;7.110;2023-05-21T00:51:57;101036.00;;;14.28;69.60
34961;BME280;30789;52.030;7.110;2023-05-21T00:54:25;101032.03;;;14.29;69.08
34961;BME280;30789;52.030;7.110;2023-05-21T00:56:53;101029.69;;;14.24;69.67
34961;BME280;30789;52.030;7.110;2023-05-21T00:59:20;101032.44;;;14.20;70.02
34961;BME280;30789;52.030;7.110;2023-05-21T01:01:48;101026.94;;;14.13;70.37
34961;BME280;30789;52.030;7.110;2023-05-21T01:04:21;101020.97;;;14.11;70.04
34961;BME280;30789;52.030;7.110;2023-05-21T01:06:48;101017.44;;;14.07;70.71
34961;BME280;30789;52.030;7.110;2023-05-21T01:09:14;101025.75;;;14.07;70.07
34961;BME280;30789;52.030;7.110;2023-05-21T01:11:43;101023.75;;;14.04;70.81
34961;BME280;30789;52.030;7.110;2023-05-21T01:14:12;101018.25;;;13.94;71.27
34961;BME280;30789;52.030;7.110;2023-05-21T01:16:40;101012.69;;;13.97;70.60
34961;BME280;30789;52.030;7.110;2023-05-21T01:19:14;101018.63;;;13.96;71.14
34961;BME280;30789;52.030;7.110;2023-05-21T01:21:44;101007.56;;;13.85;71.88
34961;BME280;30789;52.030;7.110;2023-05-21T01:24:12;101014.72;;;13.83;72.21
34961;BME280;30789;52.030;7.110;2023-05-21T01:26:39;101008.75;;;13.88;71.34
34961;BME280;30789;52.030;7.110;2023-05-21T01:29:07;101008.78;;;13.84;71.66
34961;BME280;30789;52.030;7.110;2023-05-21T01:31:44;101009.94;;;13.90;71.47
34961;BME280;30789;52.030;7.110;2023-05-21T01:34:13;101002.44;;;13.84;72.12
34961;BME280;30789;52.030;7.110;2023-05-21T01:36:48;101000.88;;;13.83;71.83
34961;BME280;30789;52.030;7.110;2023-05-21T01:39:22;100999.25;;;13.82;72.02
34961;BME280;30789;52.030;7.110;2023-05-21T01:41:53;101007.56;;;13.85;72.05
34961;BME280;30789;52.030;7.110;2023-05-21T01:44:21;101001.25;;;13.85;72.36
34961;BME280;30789;52.030;7.110;2023-05-21T01:46:49;101005.22;;;13.87;71.91
34961;BME280;30789;52.030;7.110;2023-05-21T01:49:18;100999.25;;;13.82;72.47
34961;BME280;30789;52.030;7.110;2023-05-21T01:51:46;100995.72;;;13.74;72.30
34961;BME280;30789;52.030;7.110;2023-05-21T01:54:13;100995.72;;;13.77;72.91
34961;BME280;30789;52.030;7.110;2023-05-21T01:56:41;100997.69;;;13.77;72.63
34961;BME280;30789;52.030;7.110;2023-05-21T01:59:07;100994.91;;;13.73;72.84
34961;BME280;30789;52.030;7.110;2023-05-21T02:01:34;100992.16;;;13.73;72.75
34961;BME280;30789;52.030;7.110;2023-05-21T02:04:00;100996.53;;;13.74;72.47
34961;BME280;30789;52.030;7.110;2023-05-21T02:06:27;100990.19;;;13.70;72.42
34961;BME280;30789;52.030;7.110;2023-05-21T02:08:53;100983.88;;;13.66;73.13
34961;BME280;30789;52.030;7.110;2023-05-21T02:11:20;100982.28;;;13.65;72.94
34961;BME280;30789;52.030;7.110;2023-05-21T02:13:48;100982.69;;;13.60;72.88
34961;BME280;30789;52.030;7.110;2023-05-21T02:16:15;100987.44;;;13.56;73.18
34961;BME280;30789;52.030;7.110;2023-05-21T02:18:41;100989.41;;;13.59;73.53
34961;BME280;30789;52.030;7.110;2023-05-21T02:21:08;100985.47;;;13.53;73.71
34961;BME280;30789;52.030;7.110;2023-05-21T02:23:36;100990.63;;;13.51;73.36
34961;BME280;30789;52.030;7.110;2023-05-21T02:26:03;100976.78;;;13.51;73.55
34961;BME280;30789;52.030;7.110;2023-05-21T02:28:29;100981.09;;;13.49;73.68
34961;BME280;30789;52.030;7.110;2023-05-21T02:30:58;100987.47;;;13.42;73.79
34961;BME280;30789;52.030;7.110;2023-05-21T02:33:25;100988.63;;;13.41;74.19
34961;BME280;30789;52.030;7.110;2023-05-21T02:35:51;100985.47;;;13.43;74.18
34961;BME280;30789;52.030;7.110;2023-05-21T02:38:18;100974.38;;;13.46;74.04
34961;BME280;30789;52.030;7.110;2023-05-21T02:40:47;100980.31;;;13.41;73.89
34961;BME280;30789;52.030;7.110;2023-05-21T02:43:15;100973.59;;;13.39;74.17
34961;BME280;30789;52.030;7.110;2023-05-21T02:45:41;100972.81;;;13.35;74.71
34961;BME280;30789;52.030;7.110;2023-05-21T02:48:09;100980.72;;;13.29;74.62
34961;BME280;30789;52.030;7.110;2023-05-21T02:50:36;100972.81;;;13.28;74.82
34961;BME280;30789;52.030;7.110;2023-05-21T02:53:02;100968.88;;;13.29;74.71
34961;BME280;30789;52.030;7.110;2023-05-21T02:55:29;100961.34;;;13.29;74.44
34961;BME280;30789;52.030;7.110;2023-05-21T02:57:55;100965.72;;;13.30;74.67
34961;BME280;30789;52.030;7.110;2023-05-21T03:00:21;100961.75;;;13.24;74.92
34961;BME280;30789;52.030;7.110;2023-05-21T03:02:48;100962.16;;;13.19;75.33
34961;BME280;30789;52.030;7.110;2023-05-21T03:05:16;100964.91;;;13.16;75.64
34961;BME280;30789;52.030;7.110;2023-05-21T03:07:42;100957.78;;;13.22;75.26
34961;BME280;30789;52.030;7.110;2023-05-21T03:10:09;100958.19;;;13.20;74.91
34961;BME280;30789;52.030;7.110;2023-05-21T03:12:36;100959.75;;;13.21;75.12
34961;BME280;30789;52.030;7.110;2023-05-21T03:15:03;100953.84;;;13.19;75.23
34961;BME280;30789;52.030;7.110;2023-05-21T03:17:30;100957.41;;;13.16;75.33
34961;BME280;30789;52.030;7.110;2023-05-21T03:19:56;100958.19;;;13.13;76.12
34961;BME280;30789;52.030;7.110;2023-05-21T03:22:24;100967.28;;;13.17;75.03
34961;BME280;30789;52.030;7.110;2023-05-21T03:24:51;100955.41;;;13.06;75.92
34961;BME280;30789;52.030;7.110;2023-05-21T03:27:17;100959.00;;;13.10;75.56
34961;BME280;30789;52.030;7.110;2023-05-21T03:29:44;100956.22;;;13.07;76.32
34961;BME280;30789;52.030;7.110;2023-05-21T03:32:11;100956.59;;;12.98;76.49
34961;BME280;30789;52.030;7.110;2023-05-21T03:34:37;100953.44;;;13.03;76.84
34961;BME280;30789;52.030;7.110;2023-05-21T03:37:04;100955.03;;;13.04;76.51
34961;BME280;30789;52.030;7.110;2023-05-21T03:39:32;100960.16;;;13.02;76.67
34961;BME280;30789;52.030;7.110;2023-05-21T03:41:58;100958.19;;;13.06;76.74
34961;BME280;30789;52.030;7.110;2023-05-21T03:44:25;100950.69;;;13.07;76.89
34961;BME280;30789;52.030;7.110;2023-05-21T03:46:52;100953.44;;;13.10;76.54
34961;BME280;30789;52.030;7.110;2023-05-21T03:49:19;100953.81;;;13.12;76.46
34961;BME280;30789;52.030;7.110;2023-05-21T03:51:45;100958.19;;;13.13;76.03
34961;BME280;30789;52.030;7.110;2023-05-21T03:54:12;100959.75;;;13.04;77.02
34961;BME280;30789;52.030;7.110;2023-05-21T03:56:39;100962.91;;;13.09;76.38
34961;BME280;30789;52.030;7.110;2023-05-21T03:59:06;100958.59;;;13.08;76.90
34961;BME280;30789;52.030;7.110;2023-05-21T04:01:32;100954.63;;;13.13;76.56
34961;BME280;30789;52.030;7.110;2023-05-21T04:03:59;100959.38;;;13.16;76.41
34961;BME280;30789;52.030;7.110;2023-05-21T04:06:26;100959.75;;;13.21;76.07
34961;BME280;30789;52.030;7.110;2023-05-21T04:08:52;100964.91;;;13.16;76.18
34961;BME280;30789;52.030;7.110;2023-05-21T04:11:19;100958.19;;;13.17;76.57
34961;BME280;30789;52.030;7.110;2023-05-21T04:13:47;100961.34;;;13.19;76.51
34961;BME280;30789;52.030;7.110;2023-05-21T04:16:13;100961.34;;;13.22;76.52
34961;BME280;30789;52.030;7.110;2023-05-21T04:18:43;100962.13;;;13.26;76.40
34961;BME280;30789;52.030;7.110;2023-05-21T04:21:09;100961.75;;;13.28;76.56
34961;BME280;30789;52.030;7.110;2023-05-21T04:23:36;100961.75;;;13.28;76.79
34961;BME280;30789;52.030;7.110;2023-05-21T04:26:02;100964.91;;;13.33;76.51
34961;BME280;30789;52.030;7.110;2023-05-21T04:28:29;100969.25;;;13.34;76.64
34961;BME280;30789;52.030;7.110;2023-05-21T04:30:57;100968.84;;;13.43;76.58
34961;BME280;30789;52.030;7.110;2023-05-21T04:33:23;100962.50;;;13.46;76.23
34961;BME280;30789;52.030;7.110;2023-05-21T04:35:50;100961.75;;;13.45;76.34
34961;BME280;30789;52.030;7.110;2023-05-21T04:38:17;100965.69;;;13.44;76.62
34961;BME280;30789;52.030;7.110;2023-05-21T04:40:45;100967.25;;;13.49;76.45
34961;BME280;30789;52.030;7.110;2023-05-21T04:43:12;100971.22;;;13.51;76.42
34961;BME280;30789;52.030;7.110;2023-05-21T04:45:38;100974.41;;;13.53;76.14
34961;BME280;30789;52.030;7.110;2023-05-21T04:48:06;100973.59;;;13.56;76.54
34961;BME280;30789;52.030;7.110;2023-05-21T04:50:33;100971.59;;;13.60;76.25
34961;BME280;30789;52.030;7.110;2023-05-21T04:52:59;100958.94;;;13.66;75.67
34961;BME280;30789;52.030;7.110;2023-05-21T04:55:26;100972.41;;;13.61;76.29
34961;BME280;30789;52.030;7.110;2023-05-21T04:57:53;100969.22;;;13.69;75.65
34961;BME280;30789;52.030;7.110;2023-05-21T05:00:20;100982.28;;;13.76;75.80
34961;BME280;30789;52.030;7.110;2023-05-21T05:02:49;100978.31;;;13.66;75.86
34961;BME280;30789;52.030;7.110;2023-05-21T05:05:17;100977.53;;;13.69;76.33
34961;BME280;30789;52.030;7.110;2023-05-21T05:07:43;100975.13;;;13.75;75.98
34961;BME280;30789;52.030;7.110;2023-05-21T05:10:10;100981.47;;;13.75;76.07
34961;BME280;30789;52.030;7.110;2023-05-21T05:12:36;100972.75;;;13.81;76.28
34961;BME280;30789;52.030;7.110;2023-05-21T05:15:03;100978.69;;;13.93;75.24
34961;BME280;30789;52.030;7.110;2023-05-21T05:17:30;100969.97;;;13.91;75.41
34961;BME280;30789;52.030;7.110;2023-05-21T05:19:58;100965.19;;;13.95;74.58
34961;BME280;30789;52.030;7.110;2023-05-21T05:22:26;100969.97;;;13.95;74.92
34961;BME280;30789;52.030;7.110;2023-05-21T05:24:52;100968.78;;;13.89;76.04
34961;BME280;30789;52.030;7.110;2023-05-21T05:27:19;100958.47;;;13.93;75.98
34961;BME280;30789;52.030;7.110;2023-05-21T05:29:46;100966.34;;;14.08;74.84
34961;BME280;30789;52.030;7.110;2023-05-21T05:32:13;100963.63;;;13.91;75.87
34961;BME280;30789;52.030;7.110;2023-05-21T05:34:39;100966.81;;;13.86;75.64
34961;BME280;30789;52.030;7.110;2023-05-21T05:37:06;100964.44;;;13.77;76.17
34961;BME280;30789;52.030;7.110;2023-05-21T05:39:34;100969.16;;;13.91;75.31
34961;BME280;30789;52.030;7.110;2023-05-21T05:42:01;100956.50;;;13.93;76.30
34961;BME280;30789;52.030;7.110;2023-05-21T05:44:27;100953.66;;;14.18;74.78
34961;BME280;30789;52.030;7.110;2023-05-21T05:46:54;100944.97;;;14.05;74.88
34961;BME280;30789;52.030;7.110;2023-05-21T05:49:20;100948.09;;;14.18;74.36
34961;BME280;30789;52.030;7.110;2023-05-21T05:51:47;100946.47;;;14.31;73.73
34961;BME280;30789;52.030;7.110;2023-05-21T05:54:13;100947.28;;;14.31;73.92
34961;BME280;30789;52.030;7.110;2023-05-21T05:56:41;100946.47;;;14.34;74.40
34961;BME280;30789;52.030;7.110;2023-05-21T05:59:08;100948.00;;;14.46;73.78
34961;BME280;30789;52.030;7.110;2023-05-21T06:01:34;100942.84;;;14.48;73.91
34961;BME280;30789;52.030;7.110;2023-05-21T06:04:01;100946.75;;;14.54;73.25
34961;BME280;30789;52.030;7.110;2023-05-21T06:06:27;100940.47;;;14.46;73.46
34961;BME280;30789;52.030;7.110;2023-05-21T06:08:54;100937.63;;;14.53;73.32
34961;BME280;30789;52.030;7.110;2023-05-21T06:11:20;100951.88;;;14.59;73.17
34961;BME280;30789;52.030;7.110;2023-05-21T06:13:48;100938.34;;;14.68;72.92
34961;BME280;30789;52.030;7.110;2023-05-21T06:16:14;100938.28;;;14.78;72.78
34961;BME280;30789;52.030;7.110;2023-05-21T06:18:41;100933.56;;;14.72;73.11
34961;BME280;30789;52.030;7.110;2023-05-21T06:21:08;100937.84;;;14.87;72.51
34961;BME280;30789;52.030;7.110;2023-05-21T06:23:34;100946.50;;;14.96;72.41
34961;BME280;30789;52.030;7.110;2023-05-21T06:26:02;100945.97;;;15.11;71.71
34961;BME280;30789;52.030;7.110;2023-05-21T06:28:28;100947.19;;;15.07;71.90
34961;BME280;30789;52.030;7.110;2023-05-21T06:30:56;100947.53;;;15.16;71.79
34961;BME280;30789;52.030;7.110;2023-05-21T06:33:23;100947.19;;;15.07;70.78
34961;BME280;30789;52.030;7.110;2023-05-21T06:35:49;100944.22;;;15.31;70.77
34961;BME280;30789;52.030;7.110;2023-05-21T06:38:16;100943.38;;;15.38;70.85
34961;BME280;30789;52.030;7.110;2023-05-21T06:40:42;100936.25;;;15.41;70.25
34961;BME280;30789;52.030;7.110;2023-05-21T06:43:11;100941.84;;;15.30;70.69
34961;BME280;30789;52.030;7.110;2023-05-21T06:45:38;100938.63;;;15.35;70.72
34961;BME280;30789;52.030;7.110;2023-05-21T06:48:05;100936.25;;;15.37;70.18
34961;BME280;30789;52.030;7.110;2023-05-21T06:50:32;100939.75;;;15.48;70.00
34961;BME280;30789;52.030;7.110;2023-05-21T06:52:59;100945.91;;;15.66;69.08
34961;BME280;30789;52.030;7.110;2023-05-21T06:55:25;100947.09;;;15.65;68.71
34961;BME280;30789;52.030;7.110;2023-05-21T06:57:52;100955.81;;;15.67;69.03
34961;BME280;30789;52.030;7.110;2023-05-21T07:00:18;100953.41;;;15.69;69.29
34961;BME280;30789;52.030;7.110;2023-05-21T07:02:45;100949.41;;;15.74;69.41
34961;BME280;30789;52.030;7.110;2023-05-21T07:05:13;100953.69;;;15.82;69.19
34961;BME280;30789;52.030;7.110;2023-05-21T07:07:39;100950.22;;;15.71;70.03
34961;BME280;30789;52.030;7.110;2023-05-21T07:10:07;100953.41;;;15.69;69.18
34961;BME280;30789;52.030;7.110;2023-05-21T07:12:33;100951.75;;;15.79;69.44
34961;BME280;30789;52.030;7.110;2023-05-21T07:15:00;100959.59;;;15.84;68.95
34961;BME280;30789;52.030;7.110;2023-05-21T07:17:26;100955.00;;;16.04;68.54
34961;BME280;30789;52.030;7.110;2023-05-21T07:19:53;100963.34;;;16.04;68.32
34961;BME280;30789;52.030;7.110;2023-05-21T07:22:21;100960.53;;;16.07;67.45
34961;BME280;30789;52.030;7.110;2023-05-21T07:24:47;100955.66;;;15.81;68.84
34961;BME280;30789;52.030;7.110;2023-05-21T07:27:14;100959.38;;;16.05;68.61
34961;BME280;30789;52.030;7.110;2023-05-21T07:29:40;100955.41;;;16.06;68.73
34961;BME280;30789;52.030;7.110;2023-05-21T07:32:07;100956.25;;;15.99;68.58
34961;BME280;30789;52.030;7.110;2023-05-21T07:34:33;100959.56;;;16.21;68.39
34961;BME280;30789;52.030;7.110;2023-05-21T07:37:00;100955.19;;;16.23;68.26
34961;BME280;30789;52.030;7.110;2023-05-21T07:39:28;100952.34;;;16.27;68.73
34961;BME280;30789;52.030;7.110;2023-05-21T07:41:54;100951.47;;;16.33;69.19
34961;BME280;30789;52.030;7.110;2023-05-21T07:44:21;100958.06;;;16.46;68.34
34961;BME280;30789;52.030;7.110;2023-05-21T07:46:48;100952.88;;;16.48;68.00
34961;BME280;30789;52.030;7.110;2023-05-21T07:49:15;100947.97;;;16.59;67.79
34961;BME280;30789;52.030;7.110;2023-05-21T07:51:42;100946.19;;;16.72;66.84
34961;BME280;30789;52.030;7.110;2023-05-21T07:54:09;100944.19;;;16.73;65.98
34961;BME280;30789;52.030;7.110;2023-05-21T07:56:37;100944.25;;;16.69;66.39
34961;BME280;30789;52.030;7.110;2023-05-21T07:59:03;100939.56;;;16.89;66.36
34961;BME280;30789;52.030;7.110;2023-05-21T08:01:30;100937.19;;;16.88;66.36
34961;BME280;30789;52.030;7.110;2023-05-21T08:03:57;100942.97;;;17.00;66.92
34961;BME280;30789;52.030;7.110;2023-05-21T08:06:24;100937.91;;;17.19;66.58
34961;BME280;30789;52.030;7.110;2023-05-21T08:08:51;100936.06;;;17.35;64.95
34961;BME280;30789;52.030;7.110;2023-05-21T08:11:18;100926.72;;;17.22;66.18
34961;BME280;30789;52.030;7.110;2023-05-21T08:13:47;100930.59;;;17.28;65.37
34961;BME280;30789;52.030;7.110;2023-05-21T08:16:14;100928.13;;;17.34;65.36
34961;BME280;30789;52.030;7.110;2023-05-21T08:18:40;100932.72;;;17.44;65.43
34961;BME280;30789;52.030;7.110;2023-05-21T08:21:07;100931.16;;;17.85;64.39
34961;BME280;30789;52.030;7.110;2023-05-21T08:23:33;100929.50;;;17.88;63.93
34961;BME280;30789;52.030;7.110;2023-05-21T08:26:00;100931.53;;;18.07;63.32
34961;BME280;30789;52.030;7.110;2023-05-21T08:28:26;100936.53;;;18.15;62.87
34961;BME280;30789;52.030;7.110;2023-05-21T08:30:54;100938.22;;;18.29;62.62
34961;BME280;30789;52.030;7.110;2023-05-21T08:33:21;100942.84;;;18.39;62.85
34961;BME280;30789;52.030;7.110;2023-05-21T08:35:47;100936.06;;;18.36;63.53
34961;BME280;30789;52.030;7.110;2023-05-21T08:38:14;100940.63;;;18.50;62.61
34961;BME280;30789;52.030;7.110;2023-05-21T08:40:41;100946.59;;;18.68;61.55
34961;BME280;30789;52.030;7.110;2023-05-21T08:43:08;100947.59;;;18.58;61.72
34961;BME280;30789;52.030;7.110;2023-05-21T08:45:40;100948.75;;;18.60;61.85
34961;BME280;30789;52.030;7.110;2023-05-21T08:48:09;100950.81;;;18.56;61.07
34961;BME280;30789;52.030;7.110;2023-05-21T08:50:37;100945.91;;;18.44;61.78
34961;BME280;30789;52.030;7.110;2023-05-21T08:53:04;100945.03;;;18.28;62.14
34961;BME280;30789;52.030;7.110;2023-05-21T08:55:31;100941.31;;;18.34;62.63
34961;BME280;30789;52.030;7.110;2023-05-21T08:57:57;100940.41;;;18.41;63.38
34961;BME280;30789;52.030;7.110;2023-05-21T09:00:24;100943.81;;;18.84;62.24
34961;BME280;30789;52.030;7.110;2023-05-21T09:02:50;100944.72;;;18.61;61.68
34961;BME280;30789;52.030;7.110;2023-05-21T09:05:21;100939.69;;;18.73;62.32
34961;BME280;30789;52.030;7.110;2023-05-21T09:07:54;100942.44;;;19.08;62.06
34961;BME280;30789;52.030;7.110;2023-05-21T09:10:23;100945.53;;;19.30;61.15
34961;BME280;30789;52.030;7.110;2023-05-21T09:12:52;100946.91;;;19.38;60.42
34961;BME280;30789;52.030;7.110;2023-05-21T09:15:18;100947.09;;;19.31;60.08
34961;BME280;30789;52.030;7.110;2023-05-21T09:17:45;100940.00;;;19.42;59.84
34961;BME280;30789;52.030;7.110;2023-05-21T09:20:13;100938.50;;;19.22;60.57
34961;BME280;30789;52.030;7.110;2023-05-21T09:22:42;100938.00;;;19.43;60.34
34961;BME280;30789;52.030;7.110;2023-05-21T09:25:10;100934.75;;;19.60;59.71
34961;BME280;30789;52.030;7.110;2023-05-21T09:27:37;100929.44;;;19.50;59.92
34961;BME280;30789;52.030;7.110;2023-05-21T09:30:08;100934.69;;;19.48;59.47
34961;BME280;30789;52.030;7.110;2023-05-21T09:32:35;100933.00;;;19.50;60.54
34961;BME280;30789;52.030;7.110;2023-05-21T09:35:09;100934.84;;;19.57;60.38
34961;BME280;30789;52.030;7.110;2023-05-21T09:37:36;100934.41;;;19.58;59.51
34961;BME280;30789;52.030;7.110;2023-05-21T09:40:12;100925.06;;;19.49;60.73
34961;BME280;30789;52.030;7.110;2023-05-21T09:42:39;100926.50;;;19.69;61.06
34961;BME280;30789;52.030;7.110;2023-05-21T09:45:07;100931.16;;;19.88;60.48
34961;BME280;30789;52.030;7.110;2023-05-21T09:47:39;100923.03;;;19.94;59.87
34961;BME280;30789;52.030;7.110;2023-05-21T09:50:08;100924.50;;;19.98;59.95
34961;BME280;30789;52.030;7.110;2023-05-21T09:52:34;100920.75;;;20.17;59.29
34961;BME280;30789;52.030;7.110;2023-05-21T09:55:02;100919.00;;;20.36;58.70
34961;BME280;30789;52.030;7.110;2023-05-21T09:57:29;100916.78;;;20.31;58.01
34961;BME280;30789;52.030;7.110;2023-05-21T09:59:56;100914.56;;;20.10;58.52
34961;BME280;30789;52.030;7.110;2023-05-21T10:02:24;100909.72;;;19.98;58.66
34961;BME280;30789;52.030;7.110;2023-05-21T10:04:51;100907.56;;;19.89;59.20
34961;BME280;30789;52.030;7.110;2023-05-21T10:07:20;100905.66;;;19.86;60.17
34961;BME280;30789;52.030;7.110;2023-05-21T10:09:52;100909.19;;;20.03;59.19
34961;BME280;30789;52.030;7.110;2023-05-21T10:12:21;100894.16;;;19.97;58.70
34961;BME280;30789;52.030;7.110;2023-05-21T10:14:50;100897.28;;;19.99;59.00
34961;BME280;30789;52.030;7.110;2023-05-21T10:17:21;100894.34;;;19.90;59.68
34961;BME280;30789;52.030;7.110;2023-05-21T10:19:49;100896.03;;;19.87;60.26
34961;BME280;30789;52.030;7.110;2023-05-21T10:22:16;100898.00;;;20.03;59.01
34961;BME280;30789;52.030;7.110;2023-05-21T10:24:43;100889.25;;;20.01;59.71
34961;BME280;30789;52.030;7.110;2023-05-21T10:27:11;100890.16;;;20.10;58.95
34961;BME280;30789;52.030;7.110;2023-05-21T10:29:40;100887.44;;;20.23;59.12
34961;BME280;30789;52.030;7.110;2023-05-21T10:32:10;100882.84;;;20.29;59.17
34961;BME280;30789;52.030;7.110;2023-05-21T10:34:37;100888.69;;;20.47;59.04
34961;BME280;30789;52.030;7.110;2023-05-21T10:37:07;100884.56;;;20.77;58.85
34961;BME280;30789;52.030;7.110;2023-05-21T10:39:34;100883.66;;;20.92;57.92
34961;BME280;30789;52.030;7.110;2023-05-21T10:42:13;100881.50;;;21.21;57.01
34961;BME280;30789;52.030;7.110;2023-05-21T10:44:51;100889.00;;;20.87;57.58
34961;BME280;30789;52.030;7.110;2023-05-21T10:47:46;100888.41;;;21.29;56.46
34961;BME280;30789;52.030;7.110;2023-05-21T10:50:48;100885.84;;;21.22;56.12
34961;BME280;30789;52.030;7.110;2023-05-21T10:53:21;100882.75;;;21.42;55.35
34961;BME280;30789;52.030;7.110;2023-05-21T10:56:00;100887.03;;;21.68;55.96
34961;BME280;30789;52.030;7.110;2023-05-21T10:59:02;100882.44;;;22.78;52.97
34961;BME280;30789;52.030;7.110;2023-05-21T11:01:33;100881.66;;;23.26;52.50
34961;BME280;30789;52.030;7.110;2023-05-21T11:04:02;100880.75;;;23.56;52.38
34961;BME280;30789;52.030;7.110;2023-05-21T11:06:29;100880.13;;;23.71;51.19
34961;BME280;30789;52.030;7.110;2023-05-21T11:08:55;100874.16;;;23.69;49.79
34961;BME280;30789;52.030;7.110;2023-05-21T11:11:42;100873.31;;;23.14;50.93
34961;BME280;30789;52.030;7.110;2023-05-21T11:14:30;100873.72;;;23.97;50.84
34961;BME280;30789;52.030;7.110;2023-05-21T11:16:59;100864.88;;;24.22;49.34
34961;BME280;30789;52.030;7.110;2023-05-21T11:19:37;100864.38;;;24.42;49.87
34961;BME280;30789;52.030;7.110;2023-05-21T11:22:06;100868.28;;;24.86;47.66
34961;BME280;30789;52.030;7.110;2023-05-21T11:24:36;100867.25;;;24.98;48.40
34961;BME280;30789;52.030;7.110;2023-05-21T11:27:04;100859.81;;;24.86;48.29
34961;BME280;30789;52.030;7.110;2023-05-21T11:29:35;100859.47;;;25.16;47.72
34961;BME280;30789;52.030;7.110;2023-05-21T11:32:05;100860.63;;;25.34;46.69
34961;BME280;30789;52.030;7.110;2023-05-21T11:34:38;100863.16;;;24.75;47.84
34961;BME280;30789;52.030;7.110;2023-05-21T11:37:30;100862.66;;;25.71;46.54
34961;BME280;30789;52.030;7.110;2023-05-21T11:40:16;100859.22;;;25.53;46.59
34961;BME280;30789;52.030;7.110;2023-05-21T11:42:48;100854.69;;;25.70;46.31
34961;BME280;30789;52.030;7.110;2023-05-21T11:45:16;100855.53;;;25.61;45.07
34961;BME280;30789;52.030;7.110;2023-05-21T11:47:43;100853.28;;;25.27;47.24
34961;BME280;30789;52.030;7.110;2023-05-21T11:50:13;100855.84;;;25.16;47.57
34961;BME280;30789;52.030;7.110;2023-05-21T11:52:40;100853.19;;;25.22;47.30
34961;BME280;30789;52.030;7.110;2023-05-21T11:55:08;100858.69;;;25.16;46.82
34961;BME280;30789;52.030;7.110;2023-05-21T11:57:35;100864.25;;;25.25;47.64
34961;BME280;30789;52.030;7.110;2023-05-21T12:00:03;100850.34;;;25.45;45.28
34961;BME280;30789;52.030;7.110;2023-05-21T12:02:36;100849.44;;;24.92;46.97
34961;BME280;30789;52.030;7.110;2023-05-21T12:05:04;100848.38;;;25.37;47.42
34961;BME280;30789;52.030;7.110;2023-05-21T12:07:32;100844.88;;;25.80;46.72
34961;BME280;30789;52.030;7.110;2023-05-21T12:09:59;100846.94;;;26.87;44.19
34961;BME280;30789;52.030;7.110;2023-05-21T12:12:26;100851.44;;;26.93;43.42
34961;BME280;30789;52.030;7.110;2023-05-21T12:14:54;100847.50;;;26.91;43.37
34961;BME280;30789;52.030;7.110;2023-05-21T12:17:21;100841.13;;;27.10;43.64
34961;BME280;30789;52.030;7.110;2023-05-21T12:19:49;100851.56;;;27.24;44.09
34961;BME280;30789;52.030;7.110;2023-05-21T12:22:16;100851.50;;;26.99;43.23
34961;BME280;30789;52.030;7.110;2023-05-21T12:24:44;100849.25;;;26.68;43.79
34961;BME280;30789;52.030;7.110;2023-05-21T12:27:12;100853.72;;;26.74;44.66
34961;BME280;30789;52.030;7.110;2023-05-21T12:29:41;100856.91;;;26.82;44.19
34961;BME280;30789;52.030;7.110;2023-05-21T12:32:10;100852.97;;;26.94;43.24
34961;BME280;30789;52.030;7.110;2023-05-21T12:34:37;100848.09;;;26.95;44.90
34961;BME280;30789;52.030;7.110;2023-05-21T12:37:05;100848.31;;;27.71;42.03
34961;BME280;30789;52.030;7.110;2023-05-21T12:39:36;100848.56;;;27.28;43.30
34961;BME280;30789;52.030;7.110;2023-05-21T12:42:05;100847.00;;;27.47;42.81
34961;BME280;30789;52.030;7.110;2023-05-21T12:44:31;100848.56;;;27.73;41.77
34961;BME280;30789;52.030;7.110;2023-05-21T12:46:58;100846.91;;;27.61;41.91
34961;BME280;30789;52.030;7.110;2023-05-21T12:49:33;100849.47;;;27.19;42.34
34961;BME280;30789;52.030;7.110;2023-05-21T12:52:01;100846.13;;;26.66;44.18
34961;BME280;30789;52.030;7.110;2023-05-21T12:54:30;100840.97;;;26.50;44.14